GCRR/ACE METAR and TAF weather

Enter ICAO airport designator
Station Type Date Time Source
GCRR METAR 2021/07/29 17:30 UTC NOAA

GCRR 291730Z 36023KT 9999 FEW020 24/18 Q1013


Station Type Date Time Source
GCRR Decoded METAR 2021/07/29 17:30 UTC NOAA

Lanzarote / Aeropuerto, Spain (GCRR) 28-57N 013-36W 21M
Jul 29, 2021 - 01:30 PM EDT / 2021.07.29 1730 UTC
Wind: from the N (360 degrees) at 26 MPH (23 KT):0
Visibility: greater than 7 mile(s):0
Sky conditions: mostly clear
Temperature: 75 F (24 C)
Dew Point: 64 F (18 C)
Relative Humidity: 69%
Pressure (altimeter): 29.91 in. Hg (1013 hPa)
ob: GCRR 291730Z 36023KT 9999 FEW020 24/18 Q1013
cycle: 17

Station Type Date Time Source
GCRR TAF 2021/07/29 15:29 UTC NOAA

TAF GCRR 291400Z 2915/3015 01020KT 9999 SCT020 TX30/3014Z TN21/3006Z PROB40
TEMPO 2915/2924 02020G30KT

Example: see airport list